Latest Coastal Weather Observations for Mackay

IDQ60701

Issued at 11:22 am EST Thursday 30 June 2016 (issued every 10 minutes, with the page automatically refreshed every 10 minutes)

About coastal observations | Map of coastal stations | Coastal observations for QLD | Marine services | Other Formats
Station Details ID: 033119 Name: MACKAY M.O Lat: -21.12 Lon: 149.22 Height: 30.26 m
Data from the previous 72 hours. | See also: Recent months at Mackay
Date/Time
EST
Temp
°C
Wind Pressure Rain since
9am
mm
Weather Cloud Vis
km
Sea
Height
m
Swell
Dir  Spd
kts
Gust
kts
hPa Trend Height
m
Period
s
Dir
30/11:00am 20.8 SSE 8 11 1021.3 - 0.0 - Mostly clear 10 - - - -
30/10:30am 20.6 S 7 10 1021.7 - 0.0 - - - - - - -
30/10:00am 19.6 SSW 8 11 1021.9 - 0.0 - Mostly clear 10 - - - -
30/09:30am 18.6 S 9 14 1022.0 - 0.0 - Mostly clear 10 - - - -
30/09:00am 17.9 SSW 8 11 1022.1 F 0.0 - Mostly clear 10 - - - -
30/08:30am 16.4 SSW 7 9 1022.1 - 0.0 - - - - - - -
30/08:00am 14.6 SW 7 9 1021.9 - 0.0 - - - - - - -
30/07:30am 12.9 SW 7 10 1021.5 - 0.0 - - - - - - -
30/07:00am 12.6 SW 8 11 1021.2 - 0.0 - - - - - - -
30/06:30am 12.5 SW 7 10 1020.9 - 0.0 - - - - - - -
30/06:00am 12.6 SW 7 9 1020.9 F 0.0 - Cloudy - - - - -
30/05:30am 12.2 SW 7 9 1020.6 - 0.0 - Partly cloudy - - - - -
30/05:00am 12.3 SW 8 10 1020.6 - 0.0 - Partly cloudy - - - - -
30/04:30am 12.5 SW 8 11 1020.7 - 0.0 - Partly cloudy - - - - -
30/04:00am 12.5 SW 8 10 1020.8 - 0.0 - Partly cloudy - - - - -
30/03:30am 12.4 SW 7 9 1020.7 - 0.0 - - - - - - -
30/03:00am 12.6 SW 8 11 1020.9 - 0.0 - Mostly clear - - - - -
30/02:30am 13.0 SW 8 11 1021.3 - 0.0 - Partly cloudy - - - - -
30/02:00am 13.2 SW 8 10 1021.6 - 0.0 - - - - - - -
30/01:30am 13.1 SW 8 10 1021.9 - 0.0 - Partly cloudy - - - - -
30/01:00am 13.2 SW 7 9 1022.3 - 0.0 - Partly cloudy - - - - -
30/12:30am 13.5 SSW 8 10 1022.4 - 0.0 - Partly cloudy - - - - -
30/12:00am 13.6 SW 8 10 1022.6 - 0.0 - Mostly cloudy - - - - -
 
Date/Time
EST
Temp
°C
Wind Pressure Rain since
9am
mm
Weather Cloud Vis
km
Sea
Height
m
Swell
Dir  Spd
kts
Gust
kts
hPa Trend Height
m
Period
s
Dir
29/11:30pm 13.4 SW 8 9 1022.8 - 0.0 - Partly cloudy - - - - -
29/11:00pm 13.5 SSW 8 10 1023.0 - 0.0 - Partly cloudy - - - - -
29/10:30pm 13.6 SW 8 9 1023.2 - 0.0 - Partly cloudy - - - - -
29/10:00pm 13.8 SW 9 11 1023.5 - 0.0 - - - - - - -
29/09:30pm 14.0 SW 8 10 1023.5 - 0.0 - - - - - - -
29/09:00pm 14.6 SSW 9 11 1023.4 F 0.0 - - - - - - -
29/08:30pm 15.2 SSW 9 11 1023.3 - 0.0 - - - - - - -
29/08:00pm 16.5 S 10 13 1023.3 - 0.0 - Partly cloudy - - - - -
29/07:30pm 16.9 S 9 12 1023.1 - 0.0 - Partly cloudy - - - - -
29/07:00pm 16.8 S 10 14 1022.9 - 0.0 - - - - - - -
29/06:30pm 17.2 SSE 10 15 1022.7 - 0.0 - - - - - - -
29/06:00pm 17.4 SSE 9 14 1022.6 R 0.0 - - - - - - -
29/05:30pm 17.3 SSE 9 14 1022.5 - 0.0 - - - - - - -
29/05:00pm 17.8 SSE 10 16 1022.2 - 0.0 - - - - - - -
29/04:30pm 18.2 SSE 11 17 1022.1 - 0.0 - - - - - - -
29/04:00pm 18.4 SSE 10 14 1021.9 - 0.0 - Mostly clear 10 - - - -
29/03:30pm 18.7 SSE 10 15 1021.7 - 0.0 - Mostly clear 10 - - - -
29/03:00pm 18.9 SSE 11 17 1021.8 R 0.0 - Mostly clear 10 - - - -
29/02:30pm 19.2 SSE 11 17 1021.7 - 0.0 - Mostly clear 10 - - - -
29/02:00pm 19.3 SSE 11 16 1021.8 - 0.0 - - - - - - -
29/01:30pm 18.7 SSE 11 18 1022.1 - 0.0 - - - - - - -
29/01:00pm 18.9 SSE 12 18 1022.4 - 0.0 - Mostly clear 10 - - - -
29/12:30pm 18.6 SSE 11 17 1022.8 - 0.0 - Mostly clear 10 - - - -
29/12:00pm 18.5 SSE 13 21 1023.3 F 0.0 - Mostly clear 10 - - - -
29/11:30am 18.5 SSE 11 17 1023.7 - 0.0 - Mostly clear 10 - - - -
29/11:00am 17.4 SSE 12 19 1024.2 - 0.0 - Mostly clear 10 - - - -
29/10:30am 17.0 SSE 10 18 1024.2 - 0.0 - - - - - - -
29/10:00am 16.5 S 10 15 1024.6 - 0.0 - Mostly clear 10 - - - -
29/09:30am 15.1 SSW 9 13 1024.7 - 0.0 - Mostly clear 10 - - - -
29/09:00am 13.7 SSW 8 13 1024.8 F 0.2 - Mostly clear 10 - - - -
29/08:30am 12.4 SSW 6 9 1024.8 - 0.2 - - - - - - -
29/08:00am 10.8 SW 6 9 1024.7 - 0.2 - - - - - - -
29/07:30am 9.7 SW 7 10 1024.5 - 0.2 - - - - - - -
29/07:00am 9.2 SW 7 9 1024.3 - 0.2 - - - - - - -
29/06:30am 11.9 S 12 19 1023.9 - 0.2 - - - - - - -
29/06:00am 12.1 S 13 20 1023.6 F 0.2 - - - - - - -
29/05:30am 11.6 S 10 16 1023.4 - 0.2 - - - - - - -
29/05:00am 10.1 SSW 9 15 1023.3 - 0.2 - - - - - - -
29/04:30am 10.4 SSW 9 13 1023.4 - 0.2 - - - - - - -
29/04:00am 10.5 SSW 8 12 1023.4 - 0.2 - - - - - - -
29/03:30am 11.5 SSW 11 15 1023.2 - 0.2 - - - - - - -
29/03:00am 10.4 SSW 9 13 1023.5 - 0.2 - - - - - - -
29/02:30am 9.9 SW 8 10 1023.7 - 0.2 - - - - - - -
29/02:00am 9.8 SW 6 7 1023.9 - 0.2 - - - - - - -
29/01:30am 10.2 SW 7 8 1024.0 - 0.2 - - - - - - -
29/01:00am 11.4 SW 6 7 1024.2 - 0.2 - - - - - - -
29/12:30am 11.7 SW 8 10 1024.1 - 0.2 - - - - - - -
29/12:00am 11.6 SSW 10 11 1024.3 - 0.2 - - - - - - -
 
Date/Time
EST
Temp
°C
Wind Pressure Rain since
9am
mm
Weather Cloud Vis
km
Sea
Height
m
Swell
Dir  Spd
kts
Gust
kts
hPa Trend Height
m
Period
s
Dir
28/11:30pm 12.0 SW 8 11 1024.4 - 0.2 - - - - - - -
28/11:00pm 12.2 SSW 8 10 1024.5 - 0.2 - - - - - - -
28/10:30pm 12.8 SSW 9 11 1024.4 - 0.2 - - - - - - -
28/10:00pm 14.3 S 11 16 1024.3 - 0.2 - - - - - - -
28/09:30pm 14.4 S 11 15 1024.1 - 0.2 - - - - - - -
28/09:00pm 14.9 S 9 13 1024.1 R 0.2 - - - - - - -
28/08:30pm 15.5 S 11 16 1023.9 - 0.2 - - - - - - -
28/08:00pm 16.0 S 12 18 1023.6 - 0.2 - - - - - - -
28/07:30pm 16.5 S 12 19 1023.3 - 0.2 - - - - - - -
28/07:00pm 16.2 S 10 14 1023.0 - 0.2 - - - - - - -
28/06:30pm 16.4 SSE 11 16 1022.5 - 0.2 - - - - - - -
28/06:00pm 16.7 SSE 10 15 1022.1 R 0.2 - - - - - - -
28/05:30pm 16.1 SSW 7 9 1021.6 - 0.2 - - - - - - -
28/05:00pm 17.8 SE 7 14 1021.1 - 0.2 - Mostly clear 10 - - - -
28/04:30pm 18.2 SSE 8 13 1020.9 - 0.2 - Mostly clear 10 - - - -
28/04:00pm 18.8 S 8 12 1020.5 - 0.2 - Mostly clear 10 - - - -
28/03:30pm 19.1 S 10 14 1020.4 - 0.2 - Mostly clear 10 - - - -
28/03:00pm 19.4 S 11 17 1020.2 R 0.2 - Mostly clear 10 - - - -
28/02:30pm 19.0 S 11 16 1020.1 - 0.2 - Mostly clear 10 - - - -
28/02:00pm 18.6 S 13 19 1020.2 - 0.2 - - - - - - -
28/01:30pm 19.0 S 10 16 1020.4 - 0.2 - - - - - - -
28/01:00pm 18.6 S 11 16 1020.7 - 0.2 - Mostly clear 10 - - - -
28/12:30pm 17.9 SSE 8 13 1021.1 - 0.0 - Mostly clear 10 - - - -
28/12:00pm 17.6 S 9 15 1021.5 S 0.0 - Mostly clear 10 - - - -
28/11:30am 16.4 SSE 13 19 1021.8 - 0.0 - Mostly clear 10 - - - -
28/11:00am 16.0 S 11 16 1022.1 - 0.0 - Mostly clear 10 - - - -
28/10:30am 16.0 S 10 15 1022.5 - 0.0 - Mostly clear 10 - - - -
28/10:00am 15.1 S 10 16 1022.7 - 0.0 - Partly cloudy 10 - - - -
28/09:30am 15.2 S 11 15 1022.7 - 0.0 - Partly cloudy - - - - -
28/09:00am 14.1 S 12 16 1022.4 R 4.0 - Partly cloudy 10 - - - -
28/08:30am 14.4 S 13 17 1022.2 - 4.0 - Partly cloudy 10 - - - -
28/08:00am 14.5 S 12 16 1022.0 - 4.0 - Partly cloudy - - - - -
28/07:30am 14.0 S 12 18 1021.5 - 4.0 - - - - - - -
28/07:00am 13.8 S 10 15 1021.0 - 4.0 - - - - - - -
28/06:30am 14.1 S 10 14 1020.7 - 4.0 - - - - - - -
28/06:00am 14.5 S 13 18 1020.3 R 4.0 - Mostly clear - - - - -
28/05:30am 14.7 S 12 19 1019.7 - 4.0 - - - - - - -
28/05:00am 14.8 SSW 10 16 1019.5 - 4.0 - - - - - - -
28/04:30am 15.0 SSW 8 13 1019.5 - 4.0 - - - - - - -
28/04:00am 15.4 SSW 10 15 1019.2 - 4.0 - - - - - - -
28/03:30am 15.6 SSW 12 17 1019.1 - 4.0 - - - - - - -
28/03:00am 16.0 SSW 13 19 1018.8 - 4.0 - - - - - - -
28/02:30am 16.5 SSW 13 19 1018.6 - 4.0 - - - - - - -
28/02:00am 16.8 S 11 17 1018.7 - 4.0 - - - - - - -
28/01:30am 17.3 S 11 15 1018.7 - 4.0 - - - - - - -
28/01:00am 18.2 S 10 14 1018.5 - 4.0 - - - - - - -
28/12:30am 18.9 S 9 11 1018.2 - 4.0 - Partly cloudy - - - - -
28/12:00am 19.5 S 8 11 1018.2 - 4.0 - Partly cloudy - - - - -
 
Date/Time
EST
Temp
°C
Wind Pressure Rain since
9am
mm
Weather Cloud Vis
km
Sea
Height
m
Swell
Dir  Spd
kts
Gust
kts
hPa Trend Height
m
Period
s
Dir
27/11:30pm 20.0 S 9 12 1017.9 - 4.0 - Partly cloudy - - - - -
27/11:00pm 20.1 S 10 13 1018.0 - 4.0 - Partly cloudy - - - - -
27/10:30pm 19.9 S 8 12 1017.8 - 4.0 - Partly cloudy - - - - -
27/10:00pm 20.3 S 9 13 1017.7 - 4.0 - Partly cloudy - - - - -
27/09:30pm 20.8 SSE 7 10 1017.6 - 4.0 - Cloudy - - - - -
27/09:00pm 20.8 SSE 6 9 1017.6 R 4.0 - Cloudy - - - - -
27/08:30pm 21.1 SSE 5 8 1017.5 - 4.0 - Partly cloudy - - - - -
27/08:00pm 21.0 SSE 6 8 1017.4 - 4.0 - Partly cloudy - - - - -
27/07:30pm 21.4 S 6 9 1017.1 - 4.0 - Partly cloudy - - - - -
27/07:00pm 21.5 S 4 4 1016.8 - 4.0 - Partly cloudy - - - - -
27/06:30pm 21.5 CALM 0 0 1016.3 - 4.0 - Partly cloudy - - - - -
27/06:00pm 21.5 N 3 4 1015.8 R 4.0 - Mostly clear - - - - -
27/05:30pm 21.9 CALM 0 1 1015.5 - 4.0 - Mostly clear 10 - - - -
27/05:00pm 22.2 NNW 2 4 1015.2 - 4.0 - Mostly clear 10 - - - -
27/04:30pm 22.2 WNW 5 7 1015.1 - 3.6 Showers Mostly clear 9 - - - -
27/04:09pm 22.8 NW 5 8 1014.7 - 0.8 Showers Partly cloudy 5 - - - -
27/04:00pm 23.3 NNW 7 10 1014.6 - 0.0 - Mostly clear 9 - - - -
27/03:30pm 25.4 N 7 11 1014.2 - 0.0 - Partly cloudy - - - - -
27/03:00pm 25.8 N 8 11 1014.2 R 0.0 - Mostly clear - - - - -
27/02:30pm 25.7 N 8 11 1014.1 - 0.0 - Partly cloudy - - - - -
27/02:00pm 24.7 N 7 10 1014.4 - 0.0 - Partly cloudy - - - - -
27/01:30pm 25.0 N 8 11 1014.5 - 0.0 - Mostly clear 10 - - - -
27/01:00pm 25.8 N 9 14 1014.7 - 0.0 - Mostly clear 10 - - - -
27/12:30pm 25.9 NNW 7 11 1015.2 - 0.0 - Mostly clear 10 - - - -
27/12:00pm 24.8 N 8 11 1015.7 F 0.0 - Cloudy 10 - - - -
27/11:30am 26.1 NNW 7 12 1016.1 - 0.0 - Mostly clear 10 - - - -

Other Formats:

Comma delimited format used in spreadsheet applications
http://www.bom.gov.au/fwo/IDQ60701/IDQ60701.94367.axf

JavaScript Object Notation format (JSON) in row-major order
http://www.bom.gov.au/fwo/IDQ60701/IDQ60701.94367.json